sensor_id;sensor_type;location;lat;lon;timestamp;P1;durP1;ratioP1;P2;durP2;ratioP2
6852;SDS011;3465;42.144;24.722;2022-11-20T00:01:46;46.27;;;27.40;;
6852;SDS011;3465;42.144;24.722;2022-11-20T00:04:11;52.30;;;27.57;;
6852;SDS011;3465;42.144;24.722;2022-11-20T00:06:37;53.27;;;28.73;;
6852;SDS011;3465;42.144;24.722;2022-11-20T00:09:02;50.93;;;28.23;;
6852;SDS011;3465;42.144;24.722;2022-11-20T00:11:28;52.37;;;26.70;;
6852;SDS011;3465;42.144;24.722;2022-11-20T00:13:56;49.97;;;26.80;;
6852;SDS011;3465;42.144;24.722;2022-11-20T00:16:24;51.63;;;27.43;;
6852;SDS011;3465;42.144;24.722;2022-11-20T00:18:51;55.53;;;27.97;;
6852;SDS011;3465;42.144;24.722;2022-11-20T00:21:26;54.73;;;27.83;;
6852;SDS011;3465;42.144;24.722;2022-11-20T00:23:53;53.70;;;27.37;;
6852;SDS011;3465;42.144;24.722;2022-11-20T00:26:20;52.83;;;26.73;;
6852;SDS011;3465;42.144;24.722;2022-11-20T00:28:50;51.23;;;27.63;;
6852;SDS011;3465;42.144;24.722;2022-11-20T00:31:17;53.40;;;26.60;;
6852;SDS011;3465;42.144;24.722;2022-11-20T00:33:43;49.30;;;26.83;;
6852;SDS011;3465;42.144;24.722;2022-11-20T00:36:10;52.23;;;26.73;;
6852;SDS011;3465;42.144;24.722;2022-11-20T00:38:37;60.60;;;28.73;;
6852;SDS011;3465;42.144;24.722;2022-11-20T00:41:03;56.67;;;27.03;;
6852;SDS011;3465;42.144;24.722;2022-11-20T00:43:30;51.40;;;25.80;;
6852;SDS011;3465;42.144;24.722;2022-11-20T00:45:59;53.73;;;28.00;;
6852;SDS011;3465;42.144;24.722;2022-11-20T00:48:32;50.00;;;26.93;;
6852;SDS011;3465;42.144;24.722;2022-11-20T00:50:58;51.40;;;27.23;;
6852;SDS011;3465;42.144;24.722;2022-11-20T00:53:23;52.73;;;26.77;;
6852;SDS011;3465;42.144;24.722;2022-11-20T00:55:59;48.87;;;27.63;;
6852;SDS011;3465;42.144;24.722;2022-11-20T00:58:33;51.27;;;27.50;;
6852;SDS011;3465;42.144;24.722;2022-11-20T01:01:00;52.90;;;27.43;;
6852;SDS011;3465;42.144;24.722;2022-11-20T01:03:34;49.30;;;26.57;;
6852;SDS011;3465;42.144;24.722;2022-11-20T01:06:10;47.80;;;26.40;;
6852;SDS011;3465;42.144;24.722;2022-11-20T01:08:37;48.03;;;26.80;;
6852;SDS011;3465;42.144;24.722;2022-11-20T01:11:04;53.17;;;28.07;;
6852;SDS011;3465;42.144;24.722;2022-11-20T01:13:31;53.63;;;26.43;;
6852;SDS011;3465;42.144;24.722;2022-11-20T01:16:25;44.63;;;25.43;;
6852;SDS011;3465;42.144;24.722;2022-11-20T01:18:54;51.27;;;26.37;;
6852;SDS011;3465;42.144;24.722;2022-11-20T01:21:25;48.97;;;26.67;;
6852;SDS011;3465;42.144;24.722;2022-11-20T01:23:53;56.27;;;27.73;;
6852;SDS011;3465;42.144;24.722;2022-11-20T01:26:22;50.23;;;26.87;;
6852;SDS011;3465;42.144;24.722;2022-11-20T01:28:49;53.20;;;27.00;;
6852;SDS011;3465;42.144;24.722;2022-11-20T01:31:25;52.47;;;26.80;;
6852;SDS011;3465;42.144;24.722;2022-11-20T01:33:56;54.87;;;26.70;;
6852;SDS011;3465;42.144;24.722;2022-11-20T01:36:24;50.07;;;27.37;;
6852;SDS011;3465;42.144;24.722;2022-11-20T01:38:51;49.70;;;26.77;;
6852;SDS011;3465;42.144;24.722;2022-11-20T01:41:18;52.00;;;27.07;;
6852;SDS011;3465;42.144;24.722;2022-11-20T01:44:03;50.27;;;25.20;;
6852;SDS011;3465;42.144;24.722;2022-11-20T01:46:30;48.03;;;25.57;;
6852;SDS011;3465;42.144;24.722;2022-11-20T01:48:58;51.67;;;25.07;;
6852;SDS011;3465;42.144;24.722;2022-11-20T01:54:15;50.20;;;24.93;;
6852;SDS011;3465;42.144;24.722;2022-11-20T01:56:47;45.93;;;24.90;;
6852;SDS011;3465;42.144;24.722;2022-11-20T01:59:17;46.07;;;26.07;;
6852;SDS011;3465;42.144;24.722;2022-11-20T02:01:44;44.40;;;24.00;;
6852;SDS011;3465;42.144;24.722;2022-11-20T02:04:10;56.17;;;24.93;;
6852;SDS011;3465;42.144;24.722;2022-11-20T02:06:42;47.93;;;25.73;;
6852;SDS011;3465;42.144;24.722;2022-11-20T02:09:13;45.27;;;24.40;;
6852;SDS011;3465;42.144;24.722;2022-11-20T02:11:39;48.07;;;24.97;;
6852;SDS011;3465;42.144;24.722;2022-11-20T02:14:04;43.30;;;24.57;;
6852;SDS011;3465;42.144;24.722;2022-11-20T02:16:31;52.20;;;26.00;;
6852;SDS011;3465;42.144;24.722;2022-11-20T02:19:01;47.83;;;25.33;;
6852;SDS011;3465;42.144;24.722;2022-11-20T02:24:29;43.33;;;24.03;;
6852;SDS011;3465;42.144;24.722;2022-11-20T02:27:14;46.67;;;24.90;;
6852;SDS011;3465;42.144;24.722;2022-11-20T02:29:53;50.53;;;24.43;;
6852;SDS011;3465;42.144;24.722;2022-11-20T02:32:33;43.33;;;25.07;;
6852;SDS011;3465;42.144;24.722;2022-11-20T02:35:35;55.90;;;26.50;;
6852;SDS011;3465;42.144;24.722;2022-11-20T02:37:53;45.50;;;24.73;;
6852;SDS011;3465;42.144;24.722;2022-11-20T02:40:20;45.90;;;25.13;;
6852;SDS011;3465;42.144;24.722;2022-11-20T02:42:46;54.63;;;25.17;;
6852;SDS011;3465;42.144;24.722;2022-11-20T02:45:12;44.27;;;22.17;;
6852;SDS011;3465;42.144;24.722;2022-11-20T02:47:37;44.00;;;23.00;;
6852;SDS011;3465;42.144;24.722;2022-11-20T02:50:03;43.87;;;24.03;;
6852;SDS011;3465;42.144;24.722;2022-11-20T02:52:30;41.73;;;23.23;;
6852;SDS011;3465;42.144;24.722;2022-11-20T02:54:55;40.73;;;21.73;;
6852;SDS011;3465;42.144;24.722;2022-11-20T02:57:21;41.40;;;21.63;;
6852;SDS011;3465;42.144;24.722;2022-11-20T02:59:46;42.47;;;21.20;;
6852;SDS011;3465;42.144;24.722;2022-11-20T03:02:12;43.50;;;21.47;;
6852;SDS011;3465;42.144;24.722;2022-11-20T03:04:37;40.20;;;19.97;;
6852;SDS011;3465;42.144;24.722;2022-11-20T03:07:03;42.47;;;19.43;;
6852;SDS011;3465;42.144;24.722;2022-11-20T03:09:28;44.17;;;21.30;;
6852;SDS011;3465;42.144;24.722;2022-11-20T03:11:54;39.27;;;20.37;;
6852;SDS011;3465;42.144;24.722;2022-11-20T03:14:19;34.03;;;19.17;;
6852;SDS011;3465;42.144;24.722;2022-11-20T03:16:44;37.07;;;18.23;;
6852;SDS011;3465;42.144;24.722;2022-11-20T03:19:10;31.90;;;17.47;;
6852;SDS011;3465;42.144;24.722;2022-11-20T03:21:36;29.80;;;16.80;;
6852;SDS011;3465;42.144;24.722;2022-11-20T03:24:02;32.50;;;16.97;;
6852;SDS011;3465;42.144;24.722;2022-11-20T03:26:28;33.90;;;17.00;;
6852;SDS011;3465;42.144;24.722;2022-11-20T03:28:54;34.20;;;17.63;;
6852;SDS011;3465;42.144;24.722;2022-11-20T03:31:23;36.57;;;17.00;;
6852;SDS011;3465;42.144;24.722;2022-11-20T03:33:50;33.70;;;16.70;;
6852;SDS011;3465;42.144;24.722;2022-11-20T03:36:17;35.63;;;17.33;;
6852;SDS011;3465;42.144;24.722;2022-11-20T03:38:43;31.10;;;15.83;;
6852;SDS011;3465;42.144;24.722;2022-11-20T03:41:16;33.70;;;15.87;;
6852;SDS011;3465;42.144;24.722;2022-11-20T03:43:50;32.67;;;16.43;;
6852;SDS011;3465;42.144;24.722;2022-11-20T03:46:17;35.37;;;17.67;;
6852;SDS011;3465;42.144;24.722;2022-11-20T03:48:42;27.20;;;16.73;;
6852;SDS011;3465;42.144;24.722;2022-11-20T03:51:09;30.83;;;15.50;;
6852;SDS011;3465;42.144;24.722;2022-11-20T03:53:39;34.03;;;16.73;;
6852;SDS011;3465;42.144;24.722;2022-11-20T03:56:07;29.20;;;15.87;;
6852;SDS011;3465;42.144;24.722;2022-11-20T03:58:34;36.97;;;16.80;;
6852;SDS011;3465;42.144;24.722;2022-11-20T04:03:38;31.23;;;15.90;;
6852;SDS011;3465;42.144;24.722;2022-11-20T04:06:24;30.60;;;16.00;;
6852;SDS011;3465;42.144;24.722;2022-11-20T04:08:51;33.03;;;15.60;;
6852;SDS011;3465;42.144;24.722;2022-11-20T04:13:53;31.03;;;15.17;;
6852;SDS011;3465;42.144;24.722;2022-11-20T04:16:21;31.80;;;15.00;;
6852;SDS011;3465;42.144;24.722;2022-11-20T04:18:50;30.23;;;15.47;;
6852;SDS011;3465;42.144;24.722;2022-11-20T04:21:17;27.77;;;15.53;;
6852;SDS011;3465;42.144;24.722;2022-11-20T04:23:43;25.80;;;13.80;;
6852;SDS011;3465;42.144;24.722;2022-11-20T04:26:10;35.03;;;14.73;;
6852;SDS011;3465;42.144;24.722;2022-11-20T04:28:36;31.63;;;14.73;;
6852;SDS011;3465;42.144;24.722;2022-11-20T04:33:33;23.40;;;11.97;;
6852;SDS011;3465;42.144;24.722;2022-11-20T04:36:15;34.73;;;13.00;;
6852;SDS011;3465;42.144;24.722;2022-11-20T04:38:45;23.77;;;11.10;;
6852;SDS011;3465;42.144;24.722;2022-11-20T04:41:16;30.37;;;12.43;;
6852;SDS011;3465;42.144;24.722;2022-11-20T04:43:51;25.03;;;12.43;;
6852;SDS011;3465;42.144;24.722;2022-11-20T04:46:19;24.30;;;9.00;;
6852;SDS011;3465;42.144;24.722;2022-11-20T04:48:45;21.30;;;8.50;;
6852;SDS011;3465;42.144;24.722;2022-11-20T04:51:11;30.40;;;9.27;;
6852;SDS011;3465;42.144;24.722;2022-11-20T04:53:37;23.23;;;9.03;;
6852;SDS011;3465;42.144;24.722;2022-11-20T04:56:04;22.97;;;8.97;;
6852;SDS011;3465;42.144;24.722;2022-11-20T04:58:31;22.23;;;9.67;;
6852;SDS011;3465;42.144;24.722;2022-11-20T05:01:10;17.57;;;7.87;;
6852;SDS011;3465;42.144;24.722;2022-11-20T05:03:44;21.37;;;8.10;;
6852;SDS011;3465;42.144;24.722;2022-11-20T05:06:10;21.53;;;7.47;;
6852;SDS011;3465;42.144;24.722;2022-11-20T05:08:37;20.03;;;8.67;;
6852;SDS011;3465;42.144;24.722;2022-11-20T05:11:06;24.93;;;9.53;;
6852;SDS011;3465;42.144;24.722;2022-11-20T05:13:33;18.37;;;8.67;;
6852;SDS011;3465;42.144;24.722;2022-11-20T05:16:06;17.03;;;7.70;;
6852;SDS011;3465;42.144;24.722;2022-11-20T05:18:33;16.43;;;8.23;;
6852;SDS011;3465;42.144;24.722;2022-11-20T05:20:59;16.20;;;9.67;;
6852;SDS011;3465;42.144;24.722;2022-11-20T05:23:25;22.27;;;9.03;;
6852;SDS011;3465;42.144;24.722;2022-11-20T05:25:52;19.17;;;8.47;;
6852;SDS011;3465;42.144;24.722;2022-11-20T05:28:18;17.30;;;8.87;;
6852;SDS011;3465;42.144;24.722;2022-11-20T05:30:43;21.03;;;9.47;;
6852;SDS011;3465;42.144;24.722;2022-11-20T05:33:09;17.63;;;9.43;;
6852;SDS011;3465;42.144;24.722;2022-11-20T05:35:34;18.80;;;9.10;;
6852;SDS011;3465;42.144;24.722;2022-11-20T05:38:00;22.60;;;9.93;;
6852;SDS011;3465;42.144;24.722;2022-11-20T05:40:25;27.33;;;10.53;;
6852;SDS011;3465;42.144;24.722;2022-11-20T05:42:50;21.80;;;9.63;;
6852;SDS011;3465;42.144;24.722;2022-11-20T05:45:16;18.07;;;10.00;;
6852;SDS011;3465;42.144;24.722;2022-11-20T05:47:41;31.47;;;9.93;;
6852;SDS011;3465;42.144;24.722;2022-11-20T05:50:07;27.37;;;10.80;;
6852;SDS011;3465;42.144;24.722;2022-11-20T05:52:32;27.97;;;10.70;;
6852;SDS011;3465;42.144;24.722;2022-11-20T05:54:58;33.93;;;11.67;;
6852;SDS011;3465;42.144;24.722;2022-11-20T05:57:23;22.97;;;11.03;;
6852;SDS011;3465;42.144;24.722;2022-11-20T05:59:48;23.43;;;11.03;;
6852;SDS011;3465;42.144;24.722;2022-11-20T06:02:14;26.77;;;12.00;;
6852;SDS011;3465;42.144;24.722;2022-11-20T06:04:39;24.20;;;11.37;;
6852;SDS011;3465;42.144;24.722;2022-11-20T06:07:05;29.13;;;12.30;;
6852;SDS011;3465;42.144;24.722;2022-11-20T06:09:31;21.50;;;10.50;;
6852;SDS011;3465;42.144;24.722;2022-11-20T06:11:57;23.10;;;11.77;;
6852;SDS011;3465;42.144;24.722;2022-11-20T06:14:22;20.27;;;11.67;;
6852;SDS011;3465;42.144;24.722;2022-11-20T06:16:47;32.37;;;11.87;;
6852;SDS011;3465;42.144;24.722;2022-11-20T06:19:13;27.60;;;11.73;;
6852;SDS011;3465;42.144;24.722;2022-11-20T06:21:38;23.53;;;10.60;;
6852;SDS011;3465;42.144;24.722;2022-11-20T06:24:04;31.97;;;11.13;;
6852;SDS011;3465;42.144;24.722;2022-11-20T06:26:29;29.10;;;10.90;;
6852;SDS011;3465;42.144;24.722;2022-11-20T06:28:55;19.00;;;9.40;;
6852;SDS011;3465;42.144;24.722;2022-11-20T06:31:21;23.27;;;10.00;;
6852;SDS011;3465;42.144;24.722;2022-11-20T06:33:48;25.47;;;9.80;;
6852;SDS011;3465;42.144;24.722;2022-11-20T06:36:15;20.07;;;10.40;;
6852;SDS011;3465;42.144;24.722;2022-11-20T06:38:42;20.23;;;10.03;;
6852;SDS011;3465;42.144;24.722;2022-11-20T06:41:15;21.97;;;9.97;;
6852;SDS011;3465;42.144;24.722;2022-11-20T06:43:42;22.97;;;10.17;;
6852;SDS011;3465;42.144;24.722;2022-11-20T06:46:08;18.33;;;9.63;;
6852;SDS011;3465;42.144;24.722;2022-11-20T06:48:35;19.63;;;9.90;;
6852;SDS011;3465;42.144;24.722;2022-11-20T06:51:03;16.73;;;9.30;;
6852;SDS011;3465;42.144;24.722;2022-11-20T06:53:29;22.73;;;9.43;;
6852;SDS011;3465;42.144;24.722;2022-11-20T06:55:55;24.87;;;9.40;;
6852;SDS011;3465;42.144;24.722;2022-11-20T06:58:22;19.77;;;9.63;;
6852;SDS011;3465;42.144;24.722;2022-11-20T07:00:48;22.27;;;8.60;;
6852;SDS011;3465;42.144;24.722;2022-11-20T07:03:13;15.27;;;7.80;;
6852;SDS011;3465;42.144;24.722;2022-11-20T07:05:39;22.37;;;8.47;;
6852;SDS011;3465;42.144;24.722;2022-11-20T07:08:05;17.10;;;8.33;;
6852;SDS011;3465;42.144;24.722;2022-11-20T07:10:31;17.60;;;7.60;;
6852;SDS011;3465;42.144;24.722;2022-11-20T07:12:57;18.40;;;7.07;;
6852;SDS011;3465;42.144;24.722;2022-11-20T07:15:23;15.40;;;7.70;;
6852;SDS011;3465;42.144;24.722;2022-11-20T07:17:49;14.93;;;6.60;;
6852;SDS011;3465;42.144;24.722;2022-11-20T07:20:15;16.83;;;7.03;;
6852;SDS011;3465;42.144;24.722;2022-11-20T07:22:40;16.23;;;7.20;;
6852;SDS011;3465;42.144;24.722;2022-11-20T07:25:06;13.63;;;7.10;;
6852;SDS011;3465;42.144;24.722;2022-11-20T07:27:32;19.43;;;6.97;;
6852;SDS011;3465;42.144;24.722;2022-11-20T07:29:58;14.27;;;6.53;;
6852;SDS011;3465;42.144;24.722;2022-11-20T07:32:23;15.13;;;6.40;;
6852;SDS011;3465;42.144;24.722;2022-11-20T07:34:49;15.37;;;7.07;;
6852;SDS011;3465;42.144;24.722;2022-11-20T07:37:14;25.63;;;8.03;;
6852;SDS011;3465;42.144;24.722;2022-11-20T07:39:40;18.60;;;7.67;;
6852;SDS011;3465;42.144;24.722;2022-11-20T07:42:06;25.03;;;7.37;;
6852;SDS011;3465;42.144;24.722;2022-11-20T07:44:33;18.67;;;7.03;;
6852;SDS011;3465;42.144;24.722;2022-11-20T07:46:58;28.70;;;7.83;;
6852;SDS011;3465;42.144;24.722;2022-11-20T07:49:23;22.50;;;8.17;;
6852;SDS011;3465;42.144;24.722;2022-11-20T07:51:52;15.67;;;7.03;;
6852;SDS011;3465;42.144;24.722;2022-11-20T07:54:21;15.20;;;6.57;;
6852;SDS011;3465;42.144;24.722;2022-11-20T07:56:47;15.73;;;8.03;;
6852;SDS011;3465;42.144;24.722;2022-11-20T07:59:13;23.00;;;7.80;;
6852;SDS011;3465;42.144;24.722;2022-11-20T08:01:39;31.67;;;10.43;;
6852;SDS011;3465;42.144;24.722;2022-11-20T08:04:04;16.17;;;8.70;;
6852;SDS011;3465;42.144;24.722;2022-11-20T08:06:30;27.10;;;8.93;;
6852;SDS011;3465;42.144;24.722;2022-11-20T08:08:55;25.37;;;9.40;;
6852;SDS011;3465;42.144;24.722;2022-11-20T08:11:21;20.37;;;8.13;;
6852;SDS011;3465;42.144;24.722;2022-11-20T08:14:05;16.30;;;7.60;;
6852;SDS011;3465;42.144;24.722;2022-11-20T08:19:15;27.30;;;8.60;;
6852;SDS011;3465;42.144;24.722;2022-11-20T08:21:42;21.20;;;9.27;;
6852;SDS011;3465;42.144;24.722;2022-11-20T08:24:08;24.40;;;9.57;;
6852;SDS011;3465;42.144;24.722;2022-11-20T08:26:35;33.90;;;10.40;;
6852;SDS011;3465;42.144;24.722;2022-11-20T08:29:02;25.30;;;9.70;;
6852;SDS011;3465;42.144;24.722;2022-11-20T08:31:28;22.73;;;9.20;;
6852;SDS011;3465;42.144;24.722;2022-11-20T08:33:54;25.33;;;8.37;;
6852;SDS011;3465;42.144;24.722;2022-11-20T08:36:20;23.97;;;8.97;;
6852;SDS011;3465;42.144;24.722;2022-11-20T08:38:50;21.70;;;8.53;;
6852;SDS011;3465;42.144;24.722;2022-11-20T08:41:17;26.07;;;9.37;;
6852;SDS011;3465;42.144;24.722;2022-11-20T08:43:49;16.60;;;7.93;;
6852;SDS011;3465;42.144;24.722;2022-11-20T08:46:15;15.40;;;7.10;;
6852;SDS011;3465;42.144;24.722;2022-11-20T08:48:41;36.47;;;7.83;;
6852;SDS011;3465;42.144;24.722;2022-11-20T08:51:07;16.37;;;6.43;;
6852;SDS011;3465;42.144;24.722;2022-11-20T08:53:32;14.40;;;6.07;;
6852;SDS011;3465;42.144;24.722;2022-11-20T08:55:57;19.67;;;6.53;;
6852;SDS011;3465;42.144;24.722;2022-11-20T08:58:23;18.10;;;7.30;;
6852;SDS011;3465;42.144;24.722;2022-11-20T09:00:49;18.77;;;6.90;;
6852;SDS011;3465;42.144;24.722;2022-11-20T09:03:15;18.50;;;8.13;;
6852;SDS011;3465;42.144;24.722;2022-11-20T09:05:40;18.07;;;8.27;;
6852;SDS011;3465;42.144;24.722;2022-11-20T09:08:05;20.20;;;8.30;;
6852;SDS011;3465;42.144;24.722;2022-11-20T09:10:31;17.77;;;8.40;;
6852;SDS011;3465;42.144;24.722;2022-11-20T09:12:57;15.97;;;6.80;;
6852;SDS011;3465;42.144;24.722;2022-11-20T09:15:24;11.00;;;5.63;;
6852;SDS011;3465;42.144;24.722;2022-11-20T09:20:19;14.03;;;4.30;;
6852;SDS011;3465;42.144;24.722;2022-11-20T09:22:45;10.30;;;4.43;;
6852;SDS011;3465;42.144;24.722;2022-11-20T09:25:10;12.50;;;4.17;;
6852;SDS011;3465;42.144;24.722;2022-11-20T09:27:36;8.13;;;3.77;;
6852;SDS011;3465;42.144;24.722;2022-11-20T09:30:02;7.27;;;3.60;;
6852;SDS011;3465;42.144;24.722;2022-11-20T09:32:28;5.70;;;3.50;;
6852;SDS011;3465;42.144;24.722;2022-11-20T09:34:53;7.80;;;3.73;;
6852;SDS011;3465;42.144;24.722;2022-11-20T09:37:18;8.30;;;3.13;;
6852;SDS011;3465;42.144;24.722;2022-11-20T09:39:44;8.10;;;2.80;;
6852;SDS011;3465;42.144;24.722;2022-11-20T09:50:26;9.23;;;3.30;;
6852;SDS011;3465;42.144;24.722;2022-11-20T09:55:55;9.60;;;3.83;;
6852;SDS011;3465;42.144;24.722;2022-11-20T10:00:54;9.97;;;4.13;;
6852;SDS011;3465;42.144;24.722;2022-11-20T10:03:46;8.73;;;4.10;;
6852;SDS011;3465;42.144;24.722;2022-11-20T10:07:03;8.30;;;3.93;;
6852;SDS011;3465;42.144;24.722;2022-11-20T10:09:38;11.37;;;3.97;;
6852;SDS011;3465;42.144;24.722;2022-11-20T10:20:16;13.97;;;4.23;;
6852;SDS011;3465;42.144;24.722;2022-11-20T10:25:52;14.27;;;4.90;;
6852;SDS011;3465;42.144;24.722;2022-11-20T10:28:45;17.37;;;5.07;;
6852;SDS011;3465;42.144;24.722;2022-11-20T10:31:17;16.67;;;6.17;;
6852;SDS011;3465;42.144;24.722;2022-11-20T10:33:56;13.53;;;5.17;;
6852;SDS011;3465;42.144;24.722;2022-11-20T10:36:30;16.43;;;5.53;;
6852;SDS011;3465;42.144;24.722;2022-11-20T10:39:05;19.90;;;6.27;;
6852;SDS011;3465;42.144;24.722;2022-11-20T10:41:34;17.93;;;6.30;;
6852;SDS011;3465;42.144;24.722;2022-11-20T10:44:09;16.63;;;6.17;;
6852;SDS011;3465;42.144;24.722;2022-11-20T10:46:43;17.23;;;6.00;;
6852;SDS011;3465;42.144;24.722;2022-11-20T10:49:19;25.73;;;6.93;;
6852;SDS011;3465;42.144;24.722;2022-11-20T10:56:48;13.37;;;5.30;;
6852;SDS011;3465;42.144;24.722;2022-11-20T11:01:53;16.50;;;5.33;;
6852;SDS011;3465;42.144;24.722;2022-11-20T11:06:54;22.53;;;7.03;;
6852;SDS011;3465;42.144;24.722;2022-11-20T11:09:32;17.60;;;6.50;;
6852;SDS011;3465;42.144;24.722;2022-11-20T11:12:05;17.00;;;6.37;;
6852;SDS011;3465;42.144;24.722;2022-11-20T11:14:41;18.33;;;7.40;;
6852;SDS011;3465;42.144;24.722;2022-11-20T11:17:17;20.80;;;6.73;;
6852;SDS011;3465;42.144;24.722;2022-11-20T11:19:45;17.37;;;6.83;;
6852;SDS011;3465;42.144;24.722;2022-11-20T11:22:12;23.97;;;7.93;;
6852;SDS011;3465;42.144;24.722;2022-11-20T11:24:51;24.60;;;8.10;;
6852;SDS011;3465;42.144;24.722;2022-11-20T11:27:17;26.40;;;8.43;;
6852;SDS011;3465;42.144;24.722;2022-11-20T11:29:42;26.73;;;8.47;;
6852;SDS011;3465;42.144;24.722;2022-11-20T11:32:11;30.53;;;10.23;;
6852;SDS011;3465;42.144;24.722;2022-11-20T11:34:38;36.53;;;10.87;;
6852;SDS011;3465;42.144;24.722;2022-11-20T11:37:04;36.00;;;9.90;;
6852;SDS011;3465;42.144;24.722;2022-11-20T11:39:35;20.77;;;8.90;;
6852;SDS011;3465;42.144;24.722;2022-11-20T11:42:07;26.00;;;8.50;;
6852;SDS011;3465;42.144;24.722;2022-11-20T11:44:38;33.20;;;8.70;;
6852;SDS011;3465;42.144;24.722;2022-11-20T11:52:37;31.13;;;7.20;;
6852;SDS011;3465;42.144;24.722;2022-11-20T11:55:42;28.93;;;7.90;;
6852;SDS011;3465;42.144;24.722;2022-11-20T12:06:38;21.37;;;7.27;;
6852;SDS011;3465;42.144;24.722;2022-11-20T12:09:09;19.63;;;6.33;;
6852;SDS011;3465;42.144;24.722;2022-11-20T12:11:54;19.50;;;6.53;;
6852;SDS011;3465;42.144;24.722;2022-11-20T12:14:33;21.50;;;7.20;;
6852;SDS011;3465;42.144;24.722;2022-11-20T12:17:02;32.10;;;8.97;;
6852;SDS011;3465;42.144;24.722;2022-11-20T12:19:31;22.07;;;8.17;;
6852;SDS011;3465;42.144;24.722;2022-11-20T12:24:44;19.03;;;7.33;;
6852;SDS011;3465;42.144;24.722;2022-11-20T12:30:01;17.23;;;6.90;;
6852;SDS011;3465;42.144;24.722;2022-11-20T12:35:26;16.20;;;7.00;;
6852;SDS011;3465;42.144;24.722;2022-11-20T12:38:38;28.40;;;8.77;;
6852;SDS011;3465;42.144;24.722;2022-11-20T12:47:24;26.03;;;8.80;;
6852;SDS011;3465;42.144;24.722;2022-11-20T12:58:20;111.17;;;46.77;;
6852;SDS011;3465;42.144;24.722;2022-11-20T13:04:07;56.67;;;15.83;;
6852;SDS011;3465;42.144;24.722;2022-11-20T13:06:43;57.80;;;22.20;;
6852;SDS011;3465;42.144;24.722;2022-11-20T13:09:11;43.33;;;19.10;;
6852;SDS011;3465;42.144;24.722;2022-11-20T13:14:38;36.03;;;14.00;;
6852;SDS011;3465;42.144;24.722;2022-11-20T13:19:53;42.77;;;9.47;;
6852;SDS011;3465;42.144;24.722;2022-11-20T13:22:31;37.73;;;9.07;;
6852;SDS011;3465;42.144;24.722;2022-11-20T13:25:09;25.53;;;7.07;;
6852;SDS011;3465;42.144;24.722;2022-11-20T13:27:35;28.13;;;9.57;;
6852;SDS011;3465;42.144;24.722;2022-11-20T13:30:02;25.73;;;8.77;;
6852;SDS011;3465;42.144;24.722;2022-11-20T13:35:27;19.93;;;4.30;;
6852;SDS011;3465;42.144;24.722;2022-11-20T13:38:08;12.43;;;3.07;;
6852;SDS011;3465;42.144;24.722;2022-11-20T13:40:36;14.83;;;2.97;;
6852;SDS011;3465;42.144;24.722;2022-11-20T13:43:33;25.20;;;3.73;;
6852;SDS011;3465;42.144;24.722;2022-11-20T13:46:05;11.03;;;2.80;;
6852;SDS011;3465;42.144;24.722;2022-11-20T13:48:39;17.73;;;2.73;;
6852;SDS011;3465;42.144;24.722;2022-11-20T13:51:12;18.27;;;2.90;;
6852;SDS011;3465;42.144;24.722;2022-11-20T13:53:48;13.83;;;2.53;;
6852;SDS011;3465;42.144;24.722;2022-11-20T13:56:23;20.80;;;3.03;;
6852;SDS011;3465;42.144;24.722;2022-11-20T13:59:10;13.17;;;2.93;;
6852;SDS011;3465;42.144;24.722;2022-11-20T14:01:38;15.87;;;2.27;;
6852;SDS011;3465;42.144;24.722;2022-11-20T14:04:07;7.90;;;1.80;;
6852;SDS011;3465;42.144;24.722;2022-11-20T14:06:38;11.63;;;2.33;;
6852;SDS011;3465;42.144;24.722;2022-11-20T14:09:11;6.30;;;1.40;;
6852;SDS011;3465;42.144;24.722;2022-11-20T14:11:45;7.90;;;1.50;;
6852;SDS011;3465;42.144;24.722;2022-11-20T14:16:44;8.37;;;1.60;;
6852;SDS011;3465;42.144;24.722;2022-11-20T14:21:44;4.10;;;1.13;;
6852;SDS011;3465;42.144;24.722;2022-11-20T14:24:11;5.60;;;1.30;;
6852;SDS011;3465;42.144;24.722;2022-11-20T14:26:41;6.70;;;0.97;;
6852;SDS011;3465;42.144;24.722;2022-11-20T14:29:15;2.73;;;1.00;;
6852;SDS011;3465;42.144;24.722;2022-11-20T14:31:43;4.93;;;1.20;;
6852;SDS011;3465;42.144;24.722;2022-11-20T14:34:14;7.60;;;1.47;;
6852;SDS011;3465;42.144;24.722;2022-11-20T14:36:43;6.90;;;1.47;;
6852;SDS011;3465;42.144;24.722;2022-11-20T14:39:30;2.53;;;1.23;;
6852;SDS011;3465;42.144;24.722;2022-11-20T14:41:58;5.43;;;1.60;;
6852;SDS011;3465;42.144;24.722;2022-11-20T14:44:26;4.67;;;1.10;;
6852;SDS011;3465;42.144;24.722;2022-11-20T14:46:55;7.93;;;1.90;;
6852;SDS011;3465;42.144;24.722;2022-11-20T14:49:23;5.73;;;1.73;;
6852;SDS011;3465;42.144;24.722;2022-11-20T14:51:58;12.33;;;2.67;;
6852;SDS011;3465;42.144;24.722;2022-11-20T14:54:26;5.90;;;1.67;;
6852;SDS011;3465;42.144;24.722;2022-11-20T14:56:56;9.27;;;1.90;;
6852;SDS011;3465;42.144;24.722;2022-11-20T14:59:24;5.10;;;1.70;;
6852;SDS011;3465;42.144;24.722;2022-11-20T15:01:55;5.70;;;1.87;;
6852;SDS011;3465;42.144;24.722;2022-11-20T15:04:22;16.80;;;2.30;;
6852;SDS011;3465;42.144;24.722;2022-11-20T15:06:52;7.00;;;1.87;;
6852;SDS011;3465;42.144;24.722;2022-11-20T15:09:21;5.83;;;1.80;;
6852;SDS011;3465;42.144;24.722;2022-11-20T15:11:54;6.40;;;2.80;;
6852;SDS011;3465;42.144;24.722;2022-11-20T15:14:21;25.87;;;5.37;;
6852;SDS011;3465;42.144;24.722;2022-11-20T15:16:48;11.30;;;4.90;;
6852;SDS011;3465;42.144;24.722;2022-11-20T15:19:18;11.83;;;5.73;;
6852;SDS011;3465;42.144;24.722;2022-11-20T15:21:46;19.37;;;5.90;;
6852;SDS011;3465;42.144;24.722;2022-11-20T15:24:11;13.77;;;4.50;;
6852;SDS011;3465;42.144;24.722;2022-11-20T15:26:37;8.30;;;2.77;;
6852;SDS011;3465;42.144;24.722;2022-11-20T15:29:12;8.03;;;2.73;;
6852;SDS011;3465;42.144;24.722;2022-11-20T15:31:43;9.40;;;2.13;;
6852;SDS011;3465;42.144;24.722;2022-11-20T15:34:14;6.87;;;2.47;;
6852;SDS011;3465;42.144;24.722;2022-11-20T15:36:40;7.20;;;2.13;;
6852;SDS011;3465;42.144;24.722;2022-11-20T15:39:09;10.03;;;2.63;;
6852;SDS011;3465;42.144;24.722;2022-11-20T15:41:36;16.07;;;3.50;;
6852;SDS011;3465;42.144;24.722;2022-11-20T15:44:05;14.47;;;4.80;;
6852;SDS011;3465;42.144;24.722;2022-11-20T15:46:31;18.80;;;3.77;;
6852;SDS011;3465;42.144;24.722;2022-11-20T15:49:03;7.33;;;3.60;;
6852;SDS011;3465;42.144;24.722;2022-11-20T15:51:36;11.30;;;5.07;;
6852;SDS011;3465;42.144;24.722;2022-11-20T15:54:13;16.33;;;5.37;;
6852;SDS011;3465;42.144;24.722;2022-11-20T15:56:41;18.40;;;5.90;;
6852;SDS011;3465;42.144;24.722;2022-11-20T15:59:07;15.47;;;5.83;;
6852;SDS011;3465;42.144;24.722;2022-11-20T16:01:32;15.20;;;5.83;;
6852;SDS011;3465;42.144;24.722;2022-11-20T16:03:59;14.80;;;6.00;;
6852;SDS011;3465;42.144;24.722;2022-11-20T16:06:25;16.43;;;6.03;;
6852;SDS011;3465;42.144;24.722;2022-11-20T16:08:50;11.07;;;5.53;;
6852;SDS011;3465;42.144;24.722;2022-11-20T16:11:16;14.17;;;5.93;;
6852;SDS011;3465;42.144;24.722;2022-11-20T16:13:42;19.37;;;7.97;;
6852;SDS011;3465;42.144;24.722;2022-11-20T16:16:36;23.37;;;8.87;;
6852;SDS011;3465;42.144;24.722;2022-11-20T16:19:04;23.67;;;7.67;;
6852;SDS011;3465;42.144;24.722;2022-11-20T16:21:30;17.73;;;7.27;;
6852;SDS011;3465;42.144;24.722;2022-11-20T16:23:59;17.87;;;5.77;;
6852;SDS011;3465;42.144;24.722;2022-11-20T16:26:27;23.07;;;6.83;;
6852;SDS011;3465;42.144;24.722;2022-11-20T16:28:52;18.53;;;6.77;;
6852;SDS011;3465;42.144;24.722;2022-11-20T16:31:19;15.90;;;7.27;;
6852;SDS011;3465;42.144;24.722;2022-11-20T16:33:51;24.40;;;8.57;;
6852;SDS011;3465;42.144;24.722;2022-11-20T16:36:21;21.80;;;8.60;;
6852;SDS011;3465;42.144;24.722;2022-11-20T16:38:57;23.60;;;8.27;;
6852;SDS011;3465;42.144;24.722;2022-11-20T16:41:25;19.80;;;8.20;;
6852;SDS011;3465;42.144;24.722;2022-11-20T16:43:55;20.07;;;7.90;;